Terminal Aerodrome Forecast
Issued by NWS Cleveland, OH

Home | Current Version | Previous Version | Text Only | Print | Product List | Glossary On
Versions: 1 2 3 4 5 6 7 8 9 10 11 12 13 14 15
000
FTUS41 KCLE 011000 AAA
TAFMFD
TAF AMD
KMFD 011004Z 0110/0206 18004KT P6SM SKC
      TEMPO 0111/0113 5SM BR
     FM012300 VRB04KT P6SM BKN050 BKN250=

USA.gov is the U.S. government's official web portal to all federal, state and local government web resources and services.